עמוד ראשי
METAR-TAF:

METAR-TAF

שדות תעופה :

רוסאריו, ארגנטינה

קו רוחב: 32-55S, קו אורך: 060-47W, גובה: 25מטר

תצפית מזג אוויר נוכחית

הדו"ח נערך לפני 1 שעות ו 23דקות, בשעה 02:00 UTC
רוח 7קשר מכיוון דרום
טמפרטורת 7 צלסיוס
לחות 87%
לחץ 1019 hPa
ראות 10 קילומטר או יותר
ללא עננים שבסיסם נמוך מ 5000 רגל או קומולונימבוס

METAR: SAAR 200200Z 18007KT CAVOK 07/05 Q1019

זמן: 00:23 (03:23 UTC)

תחזית

הדו"ח נערך לפני 4 שעות ו 23דקות, בשעה 23:00 UTC
תחזית בתוקף מ 20 ב 00 UTC עד 20 ב 24 UTC
רוח 5קשר מכיוון דרום
ראות 10 קילומטר או יותר
ללא עננים שבסיסם נמוך מ 5000 רגל או קומולונימבוס
יעשה מ
20 ב 12 UTC עד 20 ב 14 UTC
רוח 10קשר מכיוון מזרח
ראות 10 קילומטר או יותר
עננים פזורים בגובה 3000רגל

TAF: SAAR 192300Z 2000/2024 18005KT CAVOK TX22/2019Z TN07/2011Z BECMG 2012/2014 09010KT 9999 SCT030

תצפיות ותחזיות מזג אוויר לגבי יותר מ- 4,000 שדות תעופה ברחבי העולם. דוחות METAR ו- TAF.

התחנות הזמינות מסומנות בנקודות צהובות ואדומות על גבי המפה.

העבר את העכבר לנקודה הצבעונית על מנת לראות את שם התחנה.

לאחר מכן, לחץ כדי לראות את תוכן ואת תחזיות מזג האוויר.

כדי לשנות את המפה: לחץ על הכפתורים הירוקים עם הפלוס השחור כדי להתקרב; על הכפתור הירוק עם המקף כדי להתרחק; או בחיצים הירוקים למפות סמוכות.


METAR-TAF: